sensor_id;sensor_type;location;lat;lon;timestamp;P1;durP1;ratioP1;P2;durP2;ratioP2
63018;SDS011;49105;46.046;10.760;2023-06-05T00:02:15;2.60;;;2.60;;
63018;SDS011;49105;46.046;10.760;2023-06-05T00:04:41;2.50;;;2.50;;
63018;SDS011;49105;46.046;10.760;2023-06-05T00:07:14;2.65;;;2.60;;
63018;SDS011;49105;46.046;10.760;2023-06-05T00:09:42;3.08;;;2.92;;
63018;SDS011;49105;46.046;10.760;2023-06-05T00:12:17;2.80;;;2.70;;
63018;SDS011;49105;46.046;10.760;2023-06-05T00:14:43;2.88;;;2.78;;
63018;SDS011;49105;46.046;10.760;2023-06-05T00:17:21;2.70;;;2.63;;
63018;SDS011;49105;46.046;10.760;2023-06-05T00:19:50;2.88;;;2.78;;
63018;SDS011;49105;46.046;10.760;2023-06-05T00:22:15;2.70;;;2.65;;
63018;SDS011;49105;46.046;10.760;2023-06-05T00:24:41;2.55;;;2.55;;
63018;SDS011;49105;46.046;10.760;2023-06-05T00:27:06;2.50;;;2.50;;
63018;SDS011;49105;46.046;10.760;2023-06-05T00:29:32;2.80;;;2.70;;
63018;SDS011;49105;46.046;10.760;2023-06-05T00:31:57;2.60;;;2.60;;
63018;SDS011;49105;46.046;10.760;2023-06-05T00:34:26;2.53;;;2.53;;
63018;SDS011;49105;46.046;10.760;2023-06-05T00:36:52;2.85;;;2.75;;
63018;SDS011;49105;46.046;10.760;2023-06-05T00:39:17;2.50;;;2.50;;
63018;SDS011;49105;46.046;10.760;2023-06-05T00:41:44;2.72;;;2.70;;
63018;SDS011;49105;46.046;10.760;2023-06-05T00:44:10;2.90;;;2.80;;
63018;SDS011;49105;46.046;10.760;2023-06-05T00:46:36;2.75;;;2.67;;
63018;SDS011;49105;46.046;10.760;2023-06-05T00:49:05;2.80;;;2.70;;
63018;SDS011;49105;46.046;10.760;2023-06-05T00:51:33;3.10;;;3.00;;
63018;SDS011;49105;46.046;10.760;2023-06-05T00:53:59;2.70;;;2.60;;
63018;SDS011;49105;46.046;10.760;2023-06-05T00:56:25;2.45;;;2.45;;
63018;SDS011;49105;46.046;10.760;2023-06-05T00:58:52;2.50;;;2.50;;
63018;SDS011;49105;46.046;10.760;2023-06-05T01:01:18;2.80;;;2.70;;
63018;SDS011;49105;46.046;10.760;2023-06-05T01:03:45;2.50;;;2.50;;
63018;SDS011;49105;46.046;10.760;2023-06-05T01:06:12;2.40;;;2.40;;
63018;SDS011;49105;46.046;10.760;2023-06-05T01:08:41;2.50;;;2.50;;
63018;SDS011;49105;46.046;10.760;2023-06-05T01:14:27;2.72;;;2.63;;
63018;SDS011;49105;46.046;10.760;2023-06-05T01:16:56;2.53;;;2.53;;
63018;SDS011;49105;46.046;10.760;2023-06-05T01:19:25;2.70;;;2.60;;
63018;SDS011;49105;46.046;10.760;2023-06-05T01:22:00;2.72;;;2.65;;
63018;SDS011;49105;46.046;10.760;2023-06-05T01:24:26;2.40;;;2.40;;
63018;SDS011;49105;46.046;10.760;2023-06-05T01:29:50;2.50;;;2.50;;
63018;SDS011;49105;46.046;10.760;2023-06-05T01:32:28;2.55;;;2.55;;
63018;SDS011;49105;46.046;10.760;2023-06-05T01:35:06;2.85;;;2.75;;
63018;SDS011;49105;46.046;10.760;2023-06-05T01:40:06;2.40;;;2.40;;
63018;SDS011;49105;46.046;10.760;2023-06-05T01:42:36;2.47;;;2.47;;
63018;SDS011;49105;46.046;10.760;2023-06-05T01:45:02;2.45;;;2.45;;
63018;SDS011;49105;46.046;10.760;2023-06-05T01:47:28;2.50;;;2.50;;
63018;SDS011;49105;46.046;10.760;2023-06-05T01:49:54;2.60;;;2.60;;
63018;SDS011;49105;46.046;10.760;2023-06-05T01:52:20;2.40;;;2.40;;
63018;SDS011;49105;46.046;10.760;2023-06-05T01:54:45;2.60;;;2.60;;
63018;SDS011;49105;46.046;10.760;2023-06-05T01:57:13;2.28;;;2.28;;
63018;SDS011;49105;46.046;10.760;2023-06-05T01:59:40;2.25;;;2.25;;
63018;SDS011;49105;46.046;10.760;2023-06-05T02:02:05;2.47;;;2.47;;
63018;SDS011;49105;46.046;10.760;2023-06-05T02:04:31;2.40;;;2.40;;
63018;SDS011;49105;46.046;10.760;2023-06-05T02:06:57;2.50;;;2.50;;
63018;SDS011;49105;46.046;10.760;2023-06-05T02:09:28;2.80;;;2.70;;
63018;SDS011;49105;46.046;10.760;2023-06-05T02:11:57;2.40;;;2.40;;
63018;SDS011;49105;46.046;10.760;2023-06-05T02:14:23;2.30;;;2.30;;
63018;SDS011;49105;46.046;10.760;2023-06-05T02:16:50;2.25;;;2.25;;
63018;SDS011;49105;46.046;10.760;2023-06-05T02:19:15;2.33;;;2.33;;
63018;SDS011;49105;46.046;10.760;2023-06-05T02:21:42;2.25;;;2.25;;
63018;SDS011;49105;46.046;10.760;2023-06-05T02:24:07;2.38;;;2.38;;
63018;SDS011;49105;46.046;10.760;2023-06-05T02:26:33;2.50;;;2.50;;
63018;SDS011;49105;46.046;10.760;2023-06-05T02:28:58;2.30;;;2.30;;
63018;SDS011;49105;46.046;10.760;2023-06-05T02:31:24;2.50;;;2.50;;
63018;SDS011;49105;46.046;10.760;2023-06-05T02:33:53;2.28;;;2.28;;
63018;SDS011;49105;46.046;10.760;2023-06-05T02:36:20;2.30;;;2.30;;
63018;SDS011;49105;46.046;10.760;2023-06-05T02:38:50;2.45;;;2.45;;
63018;SDS011;49105;46.046;10.760;2023-06-05T02:41:16;2.40;;;2.40;;
63018;SDS011;49105;46.046;10.760;2023-06-05T02:43:42;2.40;;;2.40;;
63018;SDS011;49105;46.046;10.760;2023-06-05T02:46:08;2.60;;;2.60;;
63018;SDS011;49105;46.046;10.760;2023-06-05T02:48:34;2.50;;;2.50;;
63018;SDS011;49105;46.046;10.760;2023-06-05T02:50:59;2.60;;;2.60;;
63018;SDS011;49105;46.046;10.760;2023-06-05T02:53:27;2.60;;;2.60;;
63018;SDS011;49105;46.046;10.760;2023-06-05T02:55:53;2.60;;;2.60;;
63018;SDS011;49105;46.046;10.760;2023-06-05T02:58:20;2.83;;;2.72;;
63018;SDS011;49105;46.046;10.760;2023-06-05T03:00:49;2.30;;;2.30;;
63018;SDS011;49105;46.046;10.760;2023-06-05T03:03:15;2.33;;;2.33;;
63018;SDS011;49105;46.046;10.760;2023-06-05T03:05:42;2.88;;;2.78;;
63018;SDS011;49105;46.046;10.760;2023-06-05T03:08:09;2.40;;;2.40;;
63018;SDS011;49105;46.046;10.760;2023-06-05T03:10:35;2.50;;;2.50;;
63018;SDS011;49105;46.046;10.760;2023-06-05T03:13:00;2.67;;;2.65;;
63018;SDS011;49105;46.046;10.760;2023-06-05T03:15:26;2.50;;;2.50;;
63018;SDS011;49105;46.046;10.760;2023-06-05T03:17:52;2.45;;;2.45;;
63018;SDS011;49105;46.046;10.760;2023-06-05T03:20:18;2.83;;;2.72;;
63018;SDS011;49105;46.046;10.760;2023-06-05T03:22:44;2.35;;;2.35;;
63018;SDS011;49105;46.046;10.760;2023-06-05T03:25:10;2.45;;;2.45;;
63018;SDS011;49105;46.046;10.760;2023-06-05T03:27:36;2.55;;;2.55;;
63018;SDS011;49105;46.046;10.760;2023-06-05T03:30:10;2.88;;;2.78;;
63018;SDS011;49105;46.046;10.760;2023-06-05T03:32:37;3.00;;;2.90;;
63018;SDS011;49105;46.046;10.760;2023-06-05T03:35:02;3.25;;;3.15;;
63018;SDS011;49105;46.046;10.760;2023-06-05T03:37:34;2.70;;;2.70;;
63018;SDS011;49105;46.046;10.760;2023-06-05T03:42:25;2.80;;;2.70;;
63018;SDS011;49105;46.046;10.760;2023-06-05T03:44:57;2.60;;;2.60;;
63018;SDS011;49105;46.046;10.760;2023-06-05T03:47:22;2.50;;;2.50;;
63018;SDS011;49105;46.046;10.760;2023-06-05T03:49:48;2.20;;;2.20;;
63018;SDS011;49105;46.046;10.760;2023-06-05T03:52:15;2.50;;;2.50;;
63018;SDS011;49105;46.046;10.760;2023-06-05T03:54:40;2.30;;;2.30;;
63018;SDS011;49105;46.046;10.760;2023-06-05T03:57:06;2.50;;;2.50;;
63018;SDS011;49105;46.046;10.760;2023-06-05T03:59:37;2.20;;;2.20;;
63018;SDS011;49105;46.046;10.760;2023-06-05T04:02:02;2.30;;;2.30;;
63018;SDS011;49105;46.046;10.760;2023-06-05T04:04:29;2.17;;;2.17;;
63018;SDS011;49105;46.046;10.760;2023-06-05T04:06:55;2.25;;;2.25;;
63018;SDS011;49105;46.046;10.760;2023-06-05T04:09:20;2.33;;;2.33;;
63018;SDS011;49105;46.046;10.760;2023-06-05T04:11:46;2.15;;;2.15;;
63018;SDS011;49105;46.046;10.760;2023-06-05T04:14:15;2.10;;;2.10;;
63018;SDS011;49105;46.046;10.760;2023-06-05T04:16:41;2.10;;;2.10;;
63018;SDS011;49105;46.046;10.760;2023-06-05T04:19:10;2.10;;;2.10;;
63018;SDS011;49105;46.046;10.760;2023-06-05T04:21:37;2.17;;;2.17;;
63018;SDS011;49105;46.046;10.760;2023-06-05T04:24:03;2.00;;;2.00;;
63018;SDS011;49105;46.046;10.760;2023-06-05T04:26:35;2.00;;;2.00;;
63018;SDS011;49105;46.046;10.760;2023-06-05T04:29:02;1.90;;;1.90;;
63018;SDS011;49105;46.046;10.760;2023-06-05T04:31:31;1.95;;;1.95;;
63018;SDS011;49105;46.046;10.760;2023-06-05T04:33:57;1.80;;;1.80;;
63018;SDS011;49105;46.046;10.760;2023-06-05T04:36:27;2.30;;;2.20;;
63018;SDS011;49105;46.046;10.760;2023-06-05T04:38:59;1.90;;;1.90;;
63018;SDS011;49105;46.046;10.760;2023-06-05T04:41:26;1.98;;;1.98;;
63018;SDS011;49105;46.046;10.760;2023-06-05T04:43:58;1.80;;;1.80;;
63018;SDS011;49105;46.046;10.760;2023-06-05T04:46:25;2.10;;;2.10;;
63018;SDS011;49105;46.046;10.760;2023-06-05T04:48:51;1.92;;;1.92;;
63018;SDS011;49105;46.046;10.760;2023-06-05T04:51:23;1.80;;;1.80;;
63018;SDS011;49105;46.046;10.760;2023-06-05T04:53:50;1.70;;;1.70;;
63018;SDS011;49105;46.046;10.760;2023-06-05T04:56:17;2.08;;;2.08;;
63018;SDS011;49105;46.046;10.760;2023-06-05T04:58:55;1.70;;;1.70;;
63018;SDS011;49105;46.046;10.760;2023-06-05T05:01:26;1.83;;;1.83;;
63018;SDS011;49105;46.046;10.760;2023-06-05T05:03:56;1.75;;;1.75;;
63018;SDS011;49105;46.046;10.760;2023-06-05T05:06:21;1.80;;;1.80;;
63018;SDS011;49105;46.046;10.760;2023-06-05T05:12:05;1.70;;;1.70;;
63018;SDS011;49105;46.046;10.760;2023-06-05T05:14:32;1.60;;;1.60;;
63018;SDS011;49105;46.046;10.760;2023-06-05T05:17:03;1.63;;;1.63;;
63018;SDS011;49105;46.046;10.760;2023-06-05T05:19:35;1.52;;;1.52;;
63018;SDS011;49105;46.046;10.760;2023-06-05T05:22:07;1.60;;;1.60;;
63018;SDS011;49105;46.046;10.760;2023-06-05T05:24:39;1.50;;;1.50;;
63018;SDS011;49105;46.046;10.760;2023-06-05T05:27:05;1.50;;;1.50;;
63018;SDS011;49105;46.046;10.760;2023-06-05T05:29:38;1.60;;;1.60;;
63018;SDS011;49105;46.046;10.760;2023-06-05T05:32:13;1.50;;;1.50;;
63018;SDS011;49105;46.046;10.760;2023-06-05T05:34:48;1.70;;;1.70;;
63018;SDS011;49105;46.046;10.760;2023-06-05T05:37:18;1.63;;;1.63;;
63018;SDS011;49105;46.046;10.760;2023-06-05T05:39:51;1.70;;;1.70;;
63018;SDS011;49105;46.046;10.760;2023-06-05T05:42:19;1.67;;;1.67;;
63018;SDS011;49105;46.046;10.760;2023-06-05T05:44:44;1.70;;;1.70;;
63018;SDS011;49105;46.046;10.760;2023-06-05T05:47:11;1.60;;;1.60;;
63018;SDS011;49105;46.046;10.760;2023-06-05T05:49:39;1.58;;;1.58;;
63018;SDS011;49105;46.046;10.760;2023-06-05T05:52:17;1.40;;;1.40;;
63018;SDS011;49105;46.046;10.760;2023-06-05T05:54:54;1.70;;;1.70;;
63018;SDS011;49105;46.046;10.760;2023-06-05T05:57:26;2.05;;;1.98;;
63018;SDS011;49105;46.046;10.760;2023-06-05T05:59:53;1.60;;;1.60;;
63018;SDS011;49105;46.046;10.760;2023-06-05T06:02:28;1.63;;;1.63;;
63018;SDS011;49105;46.046;10.760;2023-06-05T06:05:02;1.70;;;1.70;;
63018;SDS011;49105;46.046;10.760;2023-06-05T06:07:28;1.80;;;1.80;;
63018;SDS011;49105;46.046;10.760;2023-06-05T06:09:59;1.70;;;1.70;;
63018;SDS011;49105;46.046;10.760;2023-06-05T06:12:25;1.60;;;1.60;;
63018;SDS011;49105;46.046;10.760;2023-06-05T06:14:58;1.58;;;1.58;;
63018;SDS011;49105;46.046;10.760;2023-06-05T06:17:30;1.50;;;1.50;;
63018;SDS011;49105;46.046;10.760;2023-06-05T06:20:03;1.58;;;1.58;;
63018;SDS011;49105;46.046;10.760;2023-06-05T06:22:30;1.58;;;1.58;;
63018;SDS011;49105;46.046;10.760;2023-06-05T06:25:02;1.77;;;1.77;;
63018;SDS011;49105;46.046;10.760;2023-06-05T06:27:28;1.60;;;1.60;;
63018;SDS011;49105;46.046;10.760;2023-06-05T06:30:03;1.70;;;1.70;;
63018;SDS011;49105;46.046;10.760;2023-06-05T06:32:36;1.70;;;1.70;;
63018;SDS011;49105;46.046;10.760;2023-06-05T06:35:01;1.60;;;1.60;;
63018;SDS011;49105;46.046;10.760;2023-06-05T06:37:27;1.60;;;1.60;;
63018;SDS011;49105;46.046;10.760;2023-06-05T06:39:58;1.52;;;1.52;;
63018;SDS011;49105;46.046;10.760;2023-06-05T06:42:24;1.58;;;1.58;;
63018;SDS011;49105;46.046;10.760;2023-06-05T06:44:51;1.50;;;1.50;;
63018;SDS011;49105;46.046;10.760;2023-06-05T06:47:21;1.60;;;1.60;;
63018;SDS011;49105;46.046;10.760;2023-06-05T06:49:47;1.48;;;1.48;;
63018;SDS011;49105;46.046;10.760;2023-06-05T06:52:18;1.40;;;1.40;;
63018;SDS011;49105;46.046;10.760;2023-06-05T06:54:45;1.45;;;1.45;;
63018;SDS011;49105;46.046;10.760;2023-06-05T06:57:11;1.40;;;1.40;;
63018;SDS011;49105;46.046;10.760;2023-06-05T06:59:37;1.48;;;1.48;;
63018;SDS011;49105;46.046;10.760;2023-06-05T07:02:15;1.40;;;1.40;;
63018;SDS011;49105;46.046;10.760;2023-06-05T07:04:48;1.40;;;1.40;;
63018;SDS011;49105;46.046;10.760;2023-06-05T07:07:17;1.60;;;1.60;;
63018;SDS011;49105;46.046;10.760;2023-06-05T07:09:49;1.30;;;1.30;;
63018;SDS011;49105;46.046;10.760;2023-06-05T07:12:24;1.80;;;1.80;;
63018;SDS011;49105;46.046;10.760;2023-06-05T07:14:53;1.70;;;1.70;;
63018;SDS011;49105;46.046;10.760;2023-06-05T07:17:29;1.60;;;1.60;;
63018;SDS011;49105;46.046;10.760;2023-06-05T07:20:01;1.70;;;1.70;;
63018;SDS011;49105;46.046;10.760;2023-06-05T07:22:30;1.60;;;1.60;;
63018;SDS011;49105;46.046;10.760;2023-06-05T07:24:59;1.83;;;1.83;;
63018;SDS011;49105;46.046;10.760;2023-06-05T07:27:31;1.70;;;1.70;;
63018;SDS011;49105;46.046;10.760;2023-06-05T07:34:53;1.70;;;1.70;;
63018;SDS011;49105;46.046;10.760;2023-06-05T07:37:22;1.90;;;1.90;;
63018;SDS011;49105;46.046;10.760;2023-06-05T07:39:54;1.70;;;1.70;;
63018;SDS011;49105;46.046;10.760;2023-06-05T07:42:29;1.90;;;1.90;;
63018;SDS011;49105;46.046;10.760;2023-06-05T07:45:00;1.70;;;1.70;;
63018;SDS011;49105;46.046;10.760;2023-06-05T07:47:26;3.05;;;2.95;;
63018;SDS011;49105;46.046;10.760;2023-06-05T07:50:02;1.70;;;1.70;;
63018;SDS011;49105;46.046;10.760;2023-06-05T07:52:35;2.20;;;2.20;;
63018;SDS011;49105;46.046;10.760;2023-06-05T07:55:08;1.70;;;1.70;;
63018;SDS011;49105;46.046;10.760;2023-06-05T07:57:43;1.60;;;1.60;;
63018;SDS011;49105;46.046;10.760;2023-06-05T08:00:09;1.30;;;1.30;;
63018;SDS011;49105;46.046;10.760;2023-06-05T08:02:35;1.45;;;1.45;;
63018;SDS011;49105;46.046;10.760;2023-06-05T08:05:08;1.60;;;1.60;;
63018;SDS011;49105;46.046;10.760;2023-06-05T08:07:33;1.60;;;1.60;;
63018;SDS011;49105;46.046;10.760;2023-06-05T08:09:59;1.60;;;1.60;;
63018;SDS011;49105;46.046;10.760;2023-06-05T08:12:24;1.50;;;1.50;;
63018;SDS011;49105;46.046;10.760;2023-06-05T08:14:56;1.95;;;1.85;;
63018;SDS011;49105;46.046;10.760;2023-06-05T08:17:28;1.48;;;1.48;;
63018;SDS011;49105;46.046;10.760;2023-06-05T08:22:56;1.70;;;1.70;;
63018;SDS011;49105;46.046;10.760;2023-06-05T08:25:25;1.63;;;1.63;;
63018;SDS011;49105;46.046;10.760;2023-06-05T08:27:57;1.90;;;1.90;;
63018;SDS011;49105;46.046;10.760;2023-06-05T08:30:29;1.70;;;1.70;;
63018;SDS011;49105;46.046;10.760;2023-06-05T08:33:03;1.92;;;1.92;;
63018;SDS011;49105;46.046;10.760;2023-06-05T08:35:39;1.80;;;1.80;;
63018;SDS011;49105;46.046;10.760;2023-06-05T08:38:08;1.80;;;1.80;;
63018;SDS011;49105;46.046;10.760;2023-06-05T08:40:34;1.60;;;1.60;;
63018;SDS011;49105;46.046;10.760;2023-06-05T08:43:01;1.75;;;1.75;;
63018;SDS011;49105;46.046;10.760;2023-06-05T08:45:31;1.80;;;1.80;;
63018;SDS011;49105;46.046;10.760;2023-06-05T08:47:58;1.90;;;1.90;;
63018;SDS011;49105;46.046;10.760;2023-06-05T08:50:26;2.10;;;2.10;;
63018;SDS011;49105;46.046;10.760;2023-06-05T08:52:59;10.73;;;2.80;;
63018;SDS011;49105;46.046;10.760;2023-06-05T08:55:32;2.10;;;2.10;;
63018;SDS011;49105;46.046;10.760;2023-06-05T08:58:04;1.80;;;1.80;;
63018;SDS011;49105;46.046;10.760;2023-06-05T09:00:33;1.70;;;1.70;;
63018;SDS011;49105;46.046;10.760;2023-06-05T09:03:00;1.75;;;1.75;;
63018;SDS011;49105;46.046;10.760;2023-06-05T09:05:34;1.60;;;1.60;;
63018;SDS011;49105;46.046;10.760;2023-06-05T09:07:59;1.70;;;1.70;;
63018;SDS011;49105;46.046;10.760;2023-06-05T09:10:29;1.73;;;1.73;;
63018;SDS011;49105;46.046;10.760;2023-06-05T09:12:56;1.70;;;1.70;;
63018;SDS011;49105;46.046;10.760;2023-06-05T09:15:30;1.88;;;1.88;;
63018;SDS011;49105;46.046;10.760;2023-06-05T09:20:43;1.80;;;1.80;;
63018;SDS011;49105;46.046;10.760;2023-06-05T09:25:53;1.80;;;1.80;;
63018;SDS011;49105;46.046;10.760;2023-06-05T09:28:20;1.60;;;1.60;;
63018;SDS011;49105;46.046;10.760;2023-06-05T09:30:55;1.70;;;1.70;;
63018;SDS011;49105;46.046;10.760;2023-06-05T09:33:26;1.45;;;1.45;;
63018;SDS011;49105;46.046;10.760;2023-06-05T09:36:12;1.60;;;1.60;;
63018;SDS011;49105;46.046;10.760;2023-06-05T09:38:47;1.70;;;1.70;;
63018;SDS011;49105;46.046;10.760;2023-06-05T09:41:21;1.58;;;1.58;;
63018;SDS011;49105;46.046;10.760;2023-06-05T09:43:47;1.70;;;1.70;;
63018;SDS011;49105;46.046;10.760;2023-06-05T09:46:14;1.60;;;1.60;;
63018;SDS011;49105;46.046;10.760;2023-06-05T09:48:41;1.70;;;1.70;;
63018;SDS011;49105;46.046;10.760;2023-06-05T09:51:13;1.48;;;1.48;;
63018;SDS011;49105;46.046;10.760;2023-06-05T09:53:46;1.65;;;1.65;;
63018;SDS011;49105;46.046;10.760;2023-06-05T09:56:13;1.98;;;1.90;;
63018;SDS011;49105;46.046;10.760;2023-06-05T09:58:47;1.40;;;1.40;;
63018;SDS011;49105;46.046;10.760;2023-06-05T10:01:23;1.50;;;1.50;;
63018;SDS011;49105;46.046;10.760;2023-06-05T10:04:03;1.40;;;1.40;;
63018;SDS011;49105;46.046;10.760;2023-06-05T10:06:34;1.60;;;1.60;;
63018;SDS011;49105;46.046;10.760;2023-06-05T10:09:04;1.60;;;1.60;;
63018;SDS011;49105;46.046;10.760;2023-06-05T10:11:35;1.80;;;1.80;;
63018;SDS011;49105;46.046;10.760;2023-06-05T10:14:04;1.70;;;1.70;;
63018;SDS011;49105;46.046;10.760;2023-06-05T10:16:37;1.80;;;1.80;;
63018;SDS011;49105;46.046;10.760;2023-06-05T10:19:03;1.60;;;1.60;;
63018;SDS011;49105;46.046;10.760;2023-06-05T10:21:29;1.70;;;1.70;;
63018;SDS011;49105;46.046;10.760;2023-06-05T10:24:06;1.80;;;1.80;;
63018;SDS011;49105;46.046;10.760;2023-06-05T10:27:02;1.60;;;1.60;;
63018;SDS011;49105;46.046;10.760;2023-06-05T10:35:24;1.75;;;1.75;;
63018;SDS011;49105;46.046;10.760;2023-06-05T10:40:53;1.73;;;1.73;;
63018;SDS011;49105;46.046;10.760;2023-06-05T10:43:23;1.52;;;1.52;;
63018;SDS011;49105;46.046;10.760;2023-06-05T10:45:59;1.50;;;1.50;;
63018;SDS011;49105;46.046;10.760;2023-06-05T10:51:32;1.70;;;1.70;;
63018;SDS011;49105;46.046;10.760;2023-06-05T10:54:09;1.60;;;1.60;;
63018;SDS011;49105;46.046;10.760;2023-06-05T10:59:21;2.20;;;2.10;;
63018;SDS011;49105;46.046;10.760;2023-06-05T11:15:33;1.95;;;1.60;;
63018;SDS011;49105;46.046;10.760;2023-06-05T11:21:02;1.83;;;1.80;;
63018;SDS011;49105;46.046;10.760;2023-06-05T11:23:34;1.90;;;1.90;;
63018;SDS011;49105;46.046;10.760;2023-06-05T11:29:10;2.00;;;2.00;;
63018;SDS011;49105;46.046;10.760;2023-06-05T11:31:43;2.03;;;2.03;;
63018;SDS011;49105;46.046;10.760;2023-06-05T11:34:12;1.70;;;1.70;;
63018;SDS011;49105;46.046;10.760;2023-06-05T11:36:45;1.60;;;1.60;;
63018;SDS011;49105;46.046;10.760;2023-06-05T11:39:11;1.92;;;1.92;;
63018;SDS011;49105;46.046;10.760;2023-06-05T11:41:47;1.75;;;1.75;;
63018;SDS011;49105;46.046;10.760;2023-06-05T11:44:15;1.70;;;1.70;;
63018;SDS011;49105;46.046;10.760;2023-06-05T11:46:54;1.75;;;1.75;;
63018;SDS011;49105;46.046;10.760;2023-06-05T11:49:23;1.58;;;1.58;;
63018;SDS011;49105;46.046;10.760;2023-06-05T11:52:00;1.70;;;1.70;;
63018;SDS011;49105;46.046;10.760;2023-06-05T11:54:34;2.88;;;2.70;;
63018;SDS011;49105;46.046;10.760;2023-06-05T11:57:06;1.60;;;1.60;;
63018;SDS011;49105;46.046;10.760;2023-06-05T11:59:41;1.90;;;1.80;;
63018;SDS011;49105;46.046;10.760;2023-06-05T12:02:21;2.00;;;2.00;;
63018;SDS011;49105;46.046;10.760;2023-06-05T12:04:52;1.60;;;1.60;;
63018;SDS011;49105;46.046;10.760;2023-06-05T12:07:30;1.70;;;1.70;;
63018;SDS011;49105;46.046;10.760;2023-06-05T12:10:02;1.80;;;1.80;;
63018;SDS011;49105;46.046;10.760;2023-06-05T12:12:50;1.50;;;1.50;;
63018;SDS011;49105;46.046;10.760;2023-06-05T12:15:17;1.40;;;1.40;;
63018;SDS011;49105;46.046;10.760;2023-06-05T12:17:50;1.50;;;1.50;;
63018;SDS011;49105;46.046;10.760;2023-06-05T12:20:17;1.50;;;1.50;;
63018;SDS011;49105;46.046;10.760;2023-06-05T12:22:46;1.50;;;1.50;;
63018;SDS011;49105;46.046;10.760;2023-06-05T12:25:24;1.60;;;1.60;;
63018;SDS011;49105;46.046;10.760;2023-06-05T12:28:02;1.80;;;1.80;;
63018;SDS011;49105;46.046;10.760;2023-06-05T12:30:53;1.58;;;1.58;;
63018;SDS011;49105;46.046;10.760;2023-06-05T12:33:19;1.98;;;1.88;;
63018;SDS011;49105;46.046;10.760;2023-06-05T12:38:38;1.60;;;1.60;;
63018;SDS011;49105;46.046;10.760;2023-06-05T12:41:11;1.50;;;1.50;;
63018;SDS011;49105;46.046;10.760;2023-06-05T12:43:37;1.50;;;1.50;;
63018;SDS011;49105;46.046;10.760;2023-06-05T12:46:05;1.65;;;1.65;;
63018;SDS011;49105;46.046;10.760;2023-06-05T12:48:32;1.67;;;1.67;;
63018;SDS011;49105;46.046;10.760;2023-06-05T12:51:07;1.50;;;1.50;;
63018;SDS011;49105;46.046;10.760;2023-06-05T12:53:35;1.60;;;1.60;;
63018;SDS011;49105;46.046;10.760;2023-06-05T12:56:07;1.60;;;1.60;;
63018;SDS011;49105;46.046;10.760;2023-06-05T12:58:39;1.60;;;1.60;;
63018;SDS011;49105;46.046;10.760;2023-06-05T13:01:11;6.38;;;2.33;;
63018;SDS011;49105;46.046;10.760;2023-06-05T13:03:37;1.80;;;1.80;;
63018;SDS011;49105;46.046;10.760;2023-06-05T13:09:24;1.73;;;1.73;;
63018;SDS011;49105;46.046;10.760;2023-06-05T13:11:58;1.80;;;1.80;;
63018;SDS011;49105;46.046;10.760;2023-06-05T13:14:31;1.90;;;1.90;;
63018;SDS011;49105;46.046;10.760;2023-06-05T13:17:01;2.03;;;2.03;;
63018;SDS011;49105;46.046;10.760;2023-06-05T13:19:26;1.90;;;1.90;;
63018;SDS011;49105;46.046;10.760;2023-06-05T13:21:52;1.80;;;1.80;;
63018;SDS011;49105;46.046;10.760;2023-06-05T13:24:24;1.90;;;1.90;;
63018;SDS011;49105;46.046;10.760;2023-06-05T13:26:50;1.70;;;1.70;;
63018;SDS011;49105;46.046;10.760;2023-06-05T13:29:24;1.85;;;1.85;;
63018;SDS011;49105;46.046;10.760;2023-06-05T13:31:50;1.77;;;1.77;;
63018;SDS011;49105;46.046;10.760;2023-06-05T13:34:21;1.80;;;1.80;;
63018;SDS011;49105;46.046;10.760;2023-06-05T13:36:53;1.70;;;1.70;;
63018;SDS011;49105;46.046;10.760;2023-06-05T13:39:22;1.80;;;1.80;;
63018;SDS011;49105;46.046;10.760;2023-06-05T13:41:51;1.73;;;1.73;;
63018;SDS011;49105;46.046;10.760;2023-06-05T13:44:17;1.60;;;1.60;;
63018;SDS011;49105;46.046;10.760;2023-06-05T13:46:48;1.50;;;1.50;;
63018;SDS011;49105;46.046;10.760;2023-06-05T13:49:17;1.70;;;1.70;;
63018;SDS011;49105;46.046;10.760;2023-06-05T13:51:52;2.15;;;2.05;;
63018;SDS011;49105;46.046;10.760;2023-06-05T13:54:17;1.70;;;1.70;;
63018;SDS011;49105;46.046;10.760;2023-06-05T13:56:45;1.80;;;1.80;;
63018;SDS011;49105;46.046;10.760;2023-06-05T13:59:11;1.70;;;1.70;;
63018;SDS011;49105;46.046;10.760;2023-06-05T14:01:36;1.50;;;1.50;;
63018;SDS011;49105;46.046;10.760;2023-06-05T14:04:11;1.58;;;1.58;;
63018;SDS011;49105;46.046;10.760;2023-06-05T14:06:43;1.60;;;1.60;;
63018;SDS011;49105;46.046;10.760;2023-06-05T14:09:11;1.60;;;1.60;;
63018;SDS011;49105;46.046;10.760;2023-06-05T14:11:43;1.85;;;1.75;;
63018;SDS011;49105;46.046;10.760;2023-06-05T14:14:18;1.80;;;1.80;;
63018;SDS011;49105;46.046;10.760;2023-06-05T14:16:47;1.65;;;1.65;;
63018;SDS011;49105;46.046;10.760;2023-06-05T14:19:22;1.92;;;1.92;;
63018;SDS011;49105;46.046;10.760;2023-06-05T14:21:47;1.60;;;1.60;;
63018;SDS011;49105;46.046;10.760;2023-06-05T14:24:20;1.60;;;1.60;;
63018;SDS011;49105;46.046;10.760;2023-06-05T14:26:46;1.73;;;1.73;;
63018;SDS011;49105;46.046;10.760;2023-06-05T14:29:12;1.80;;;1.80;;
63018;SDS011;49105;46.046;10.760;2023-06-05T14:31:37;1.73;;;1.73;;
63018;SDS011;49105;46.046;10.760;2023-06-05T14:34:03;1.70;;;1.70;;
63018;SDS011;49105;46.046;10.760;2023-06-05T14:36:36;1.70;;;1.70;;
63018;SDS011;49105;46.046;10.760;2023-06-05T14:41:32;1.63;;;1.63;;
63018;SDS011;49105;46.046;10.760;2023-06-05T14:44:10;1.70;;;1.70;;
63018;SDS011;49105;46.046;10.760;2023-06-05T14:46:35;1.50;;;1.50;;
63018;SDS011;49105;46.046;10.760;2023-06-05T14:49:04;1.40;;;1.40;;
63018;SDS011;49105;46.046;10.760;2023-06-05T14:51:37;1.40;;;1.40;;
63018;SDS011;49105;46.046;10.760;2023-06-05T14:54:06;1.55;;;1.55;;
63018;SDS011;49105;46.046;10.760;2023-06-05T14:56:38;1.60;;;1.60;;
63018;SDS011;49105;46.046;10.760;2023-06-05T14:59:03;1.50;;;1.50;;
63018;SDS011;49105;46.046;10.760;2023-06-05T15:01:38;1.60;;;1.60;;
63018;SDS011;49105;46.046;10.760;2023-06-05T15:04:03;1.67;;;1.67;;
63018;SDS011;49105;46.046;10.760;2023-06-05T15:06:35;1.40;;;1.40;;
63018;SDS011;49105;46.046;10.760;2023-06-05T15:09:00;1.50;;;1.50;;
63018;SDS011;49105;46.046;10.760;2023-06-05T15:11:26;1.90;;;1.80;;
63018;SDS011;49105;46.046;10.760;2023-06-05T15:13:51;1.60;;;1.60;;
63018;SDS011;49105;46.046;10.760;2023-06-05T15:16:17;1.60;;;1.60;;
63018;SDS011;49105;46.046;10.760;2023-06-05T15:18:52;1.63;;;1.63;;
63018;SDS011;49105;46.046;10.760;2023-06-05T15:21:24;1.52;;;1.52;;
63018;SDS011;49105;46.046;10.760;2023-06-05T15:23:53;1.55;;;1.55;;
63018;SDS011;49105;46.046;10.760;2023-06-05T15:26:25;1.40;;;1.40;;
63018;SDS011;49105;46.046;10.760;2023-06-05T15:29:00;1.38;;;1.38;;
63018;SDS011;49105;46.046;10.760;2023-06-05T15:31:31;1.50;;;1.50;;
63018;SDS011;49105;46.046;10.760;2023-06-05T15:36:47;1.30;;;1.30;;
63018;SDS011;49105;46.046;10.760;2023-06-05T15:39:12;1.40;;;1.40;;
63018;SDS011;49105;46.046;10.760;2023-06-05T15:41:38;1.33;;;1.33;;
63018;SDS011;49105;46.046;10.760;2023-06-05T15:44:11;1.55;;;1.55;;
63018;SDS011;49105;46.046;10.760;2023-06-05T15:46:39;1.50;;;1.50;;
63018;SDS011;49105;46.046;10.760;2023-06-05T15:49:14;1.40;;;1.40;;
63018;SDS011;49105;46.046;10.760;2023-06-05T15:51:45;1.50;;;1.50;;
63018;SDS011;49105;46.046;10.760;2023-06-05T15:54:18;1.30;;;1.30;;
63018;SDS011;49105;46.046;10.760;2023-06-05T15:57:05;1.20;;;1.20;;
63018;SDS011;49105;46.046;10.760;2023-06-05T15:59:32;1.20;;;1.20;;
63018;SDS011;49105;46.046;10.760;2023-06-05T16:02:04;1.20;;;1.20;;